sensor_id;sensor_type;location;lat;lon;timestamp;pressure;altitude;pressure_sealevel;temperature;humidity
61870;BME280;47810;42.264;23.826;2023-02-11T00:01:41;95391.63;;;-4.96;62.89
61870;BME280;47810;42.264;23.826;2023-02-11T00:04:07;95401.31;;;-4.82;62.54
61870;BME280;47810;42.264;23.826;2023-02-11T00:06:33;95402.72;;;-5.00;63.08
61870;BME280;47810;42.264;23.826;2023-02-11T00:08:59;95400.41;;;-4.86;63.00
61870;BME280;47810;42.264;23.826;2023-02-11T00:11:26;95401.44;;;-4.76;63.32
61870;BME280;47810;42.264;23.826;2023-02-11T00:13:54;95407.66;;;-4.65;62.83
61870;BME280;47810;42.264;23.826;2023-02-11T00:16:20;95402.78;;;-4.97;63.44
61870;BME280;47810;42.264;23.826;2023-02-11T00:18:46;95398.00;;;-4.78;62.55
61870;BME280;47810;42.264;23.826;2023-02-11T00:21:17;95405.03;;;-4.68;62.00
61870;BME280;47810;42.264;23.826;2023-02-11T00:23:45;95402.19;;;-4.83;62.19
61870;BME280;47810;42.264;23.826;2023-02-11T00:26:18;95403.59;;;-5.01;63.74
61870;BME280;47810;42.264;23.826;2023-02-11T00:28:45;95405.00;;;-5.15;64.96
61870;BME280;47810;42.264;23.826;2023-02-11T00:31:11;95401.69;;;-5.09;65.38
61870;BME280;47810;42.264;23.826;2023-02-11T00:33:36;95402.97;;;-4.87;62.23
61870;BME280;47810;42.264;23.826;2023-02-11T00:36:03;95404.94;;;-5.18;63.18
61870;BME280;47810;42.264;23.826;2023-02-11T00:38:28;95398.94;;;-5.17;63.43
61870;BME280;47810;42.264;23.826;2023-02-11T00:40:54;95389.38;;;-5.24;63.11
61870;BME280;47810;42.264;23.826;2023-02-11T00:43:20;95383.22;;;-5.32;63.13
61870;BME280;47810;42.264;23.826;2023-02-11T00:45:45;95395.13;;;-5.38;63.29
61870;BME280;47810;42.264;23.826;2023-02-11T00:48:11;95384.88;;;-5.34;63.18
61870;BME280;47810;42.264;23.826;2023-02-11T00:50:36;95384.84;;;-5.38;62.89
61870;BME280;47810;42.264;23.826;2023-02-11T00:53:02;95377.16;;;-5.34;62.83
61870;BME280;47810;42.264;23.826;2023-02-11T00:55:27;95378.81;;;-5.38;62.86
61870;BME280;47810;42.264;23.826;2023-02-11T00:57:52;95372.56;;;-5.49;63.20
61870;BME280;47810;42.264;23.826;2023-02-11T01:00:18;95362.41;;;-5.43;62.56
61870;BME280;47810;42.264;23.826;2023-02-11T01:02:44;95364.97;;;-5.43;62.51
61870;BME280;47810;42.264;23.826;2023-02-11T01:05:09;95374.72;;;-5.71;63.24
61870;BME280;47810;42.264;23.826;2023-02-11T01:07:35;95378.03;;;-5.75;64.29
61870;BME280;47810;42.264;23.826;2023-02-11T01:10:00;95367.53;;;-5.45;63.24
61870;BME280;47810;42.264;23.826;2023-02-11T01:12:26;95367.69;;;-5.37;62.71
61870;BME280;47810;42.264;23.826;2023-02-11T01:14:51;95366.03;;;-5.33;62.06
61870;BME280;47810;42.264;23.826;2023-02-11T01:17:17;95360.69;;;-5.43;61.72
61870;BME280;47810;42.264;23.826;2023-02-11T01:19:42;95364.97;;;-5.45;61.15
61870;BME280;47810;42.264;23.826;2023-02-11T01:22:08;95362.50;;;-5.39;61.00
61870;BME280;47810;42.264;23.826;2023-02-11T01:24:33;95367.78;;;-5.32;61.13
61870;BME280;47810;42.264;23.826;2023-02-11T01:26:59;95359.88;;;-5.42;60.93
61870;BME280;47810;42.264;23.826;2023-02-11T01:29:24;95353.25;;;-5.29;60.93
61870;BME280;47810;42.264;23.826;2023-02-11T01:31:51;95356.69;;;-5.28;60.61
61870;BME280;47810;42.264;23.826;2023-02-11T01:34:16;95350.41;;;-5.43;61.05
61870;BME280;47810;42.264;23.826;2023-02-11T01:36:42;95350.00;;;-5.64;61.68
61870;BME280;47810;42.264;23.826;2023-02-11T01:39:07;95348.16;;;-5.71;62.18
61870;BME280;47810;42.264;23.826;2023-02-11T01:41:34;95337.31;;;-5.55;61.84
61870;BME280;47810;42.264;23.826;2023-02-11T01:46:44;95329.41;;;-5.64;61.81
61870;BME280;47810;42.264;23.826;2023-02-11T01:49:11;95318.41;;;-5.55;61.45
61870;BME280;47810;42.264;23.826;2023-02-11T01:51:39;95322.50;;;-5.65;62.72
61870;BME280;47810;42.264;23.826;2023-02-11T01:54:06;95312.28;;;-5.62;62.34
61870;BME280;47810;42.264;23.826;2023-02-11T01:56:51;95309.56;;;-5.71;61.83
61870;BME280;47810;42.264;23.826;2023-02-11T01:59:40;95303.81;;;-5.58;59.84
61870;BME280;47810;42.264;23.826;2023-02-11T02:02:07;95297.38;;;-5.80;60.72
61870;BME280;47810;42.264;23.826;2023-02-11T02:04:38;95306.88;;;-5.77;61.14
61870;BME280;47810;42.264;23.826;2023-02-11T02:07:07;95307.00;;;-5.71;62.87
61870;BME280;47810;42.264;23.826;2023-02-11T02:09:42;95303.63;;;-5.67;63.84
61870;BME280;47810;42.264;23.826;2023-02-11T02:12:09;95304.00;;;-5.49;61.26
61870;BME280;47810;42.264;23.826;2023-02-11T02:14:39;95303.16;;;-5.46;60.88
61870;BME280;47810;42.264;23.826;2023-02-11T02:17:04;95306.16;;;-5.69;61.30
61870;BME280;47810;42.264;23.826;2023-02-11T02:27:49;95316.75;;;-5.55;61.34
61870;BME280;47810;42.264;23.826;2023-02-11T02:30:28;95324.03;;;-5.76;62.96
61870;BME280;47810;42.264;23.826;2023-02-11T02:33:20;95325.47;;;-5.88;63.99
61870;BME280;47810;42.264;23.826;2023-02-11T02:43:12;95329.75;;;-5.88;63.12
61870;BME280;47810;42.264;23.826;2023-02-11T02:45:38;95335.69;;;-5.91;62.52
61870;BME280;47810;42.264;23.826;2023-02-11T02:50:47;95338.75;;;-6.10;61.80
61870;BME280;47810;42.264;23.826;2023-02-11T02:53:17;95345.91;;;-5.97;62.89
61870;BME280;47810;42.264;23.826;2023-02-11T02:55:53;95335.63;;;-5.97;61.35
61870;BME280;47810;42.264;23.826;2023-02-11T03:01:30;95340.91;;;-5.88;60.02
61870;BME280;47810;42.264;23.826;2023-02-11T03:04:04;95334.03;;;-5.89;60.19
61870;BME280;47810;42.264;23.826;2023-02-11T03:06:35;95331.34;;;-5.96;60.66
61870;BME280;47810;42.264;23.826;2023-02-11T03:09:11;95332.06;;;-6.03;62.37
61870;BME280;47810;42.264;23.826;2023-02-11T03:11:38;95332.22;;;-5.96;60.07
61870;BME280;47810;42.264;23.826;2023-02-11T03:14:07;95325.97;;;-6.07;60.33
61870;BME280;47810;42.264;23.826;2023-02-11T03:16:34;95321.59;;;-6.11;60.20
61870;BME280;47810;42.264;23.826;2023-02-11T03:20:03;95324.88;;;-6.18;60.86
61870;BME280;47810;42.264;23.826;2023-02-11T03:21:59;95330.03;;;-6.18;61.24
61870;BME280;47810;42.264;23.826;2023-02-11T03:24:28;95325.81;;;-6.13;60.79
61870;BME280;47810;42.264;23.826;2023-02-11T03:26:56;95336.13;;;-6.13;60.86
61870;BME280;47810;42.264;23.826;2023-02-11T03:29:30;95336.75;;;-6.23;61.31
61870;BME280;47810;42.264;23.826;2023-02-11T03:36:56;95329.03;;;-6.23;61.66
61870;BME280;47810;42.264;23.826;2023-02-11T03:39:26;95340.03;;;-6.30;61.97
61870;BME280;47810;42.264;23.826;2023-02-11T03:41:53;95336.94;;;-6.14;60.85
61870;BME280;47810;42.264;23.826;2023-02-11T03:44:21;95327.94;;;-5.95;60.86
61870;BME280;47810;42.264;23.826;2023-02-11T03:46:49;95337.22;;;-6.02;60.78
61870;BME280;47810;42.264;23.826;2023-02-11T03:49:17;95335.94;;;-6.21;61.00
61870;BME280;47810;42.264;23.826;2023-02-11T03:51:44;95328.38;;;-6.16;61.20
61870;BME280;47810;42.264;23.826;2023-02-11T03:54:13;95327.34;;;-6.23;61.01
61870;BME280;47810;42.264;23.826;2023-02-11T03:56:44;95333.22;;;-6.28;61.35
61870;BME280;47810;42.264;23.826;2023-02-11T03:59:13;95341.06;;;-6.60;61.96
61870;BME280;47810;42.264;23.826;2023-02-11T04:01:39;95341.41;;;-6.45;63.67
61870;BME280;47810;42.264;23.826;2023-02-11T04:04:05;95342.50;;;-6.35;63.68
61870;BME280;47810;42.264;23.826;2023-02-11T04:06:30;95330.44;;;-6.38;63.00
61870;BME280;47810;42.264;23.826;2023-02-11T04:08:57;95332.38;;;-6.27;62.96
61870;BME280;47810;42.264;23.826;2023-02-11T04:11:22;95336.13;;;-6.51;61.19
61870;BME280;47810;42.264;23.826;2023-02-11T04:13:48;95331.22;;;-6.42;61.81
61870;BME280;47810;42.264;23.826;2023-02-11T04:16:13;95331.69;;;-6.20;60.50
61870;BME280;47810;42.264;23.826;2023-02-11T04:18:39;95322.81;;;-6.35;61.32
61870;BME280;47810;42.264;23.826;2023-02-11T04:21:05;95328.75;;;-6.37;61.54
61870;BME280;47810;42.264;23.826;2023-02-11T04:23:32;95333.44;;;-6.19;60.11
61870;BME280;47810;42.264;23.826;2023-02-11T04:25:57;95329.47;;;-6.43;62.85
61870;BME280;47810;42.264;23.826;2023-02-11T04:28:23;95329.75;;;-6.30;63.58
61870;BME280;47810;42.264;23.826;2023-02-11T04:30:49;95329.09;;;-6.20;63.30
61870;BME280;47810;42.264;23.826;2023-02-11T04:33:16;95326.31;;;-6.29;63.18
61870;BME280;47810;42.264;23.826;2023-02-11T04:35:42;95321.53;;;-6.14;60.71
61870;BME280;47810;42.264;23.826;2023-02-11T04:38:08;95321.88;;;-5.99;60.05
61870;BME280;47810;42.264;23.826;2023-02-11T04:40:33;95324.09;;;-6.16;61.37
61870;BME280;47810;42.264;23.826;2023-02-11T04:42:59;95322.94;;;-6.28;62.31
61870;BME280;47810;42.264;23.826;2023-02-11T04:45:25;95319.53;;;-6.27;63.97
61870;BME280;47810;42.264;23.826;2023-02-11T04:47:51;95320.53;;;-6.21;63.99
61870;BME280;47810;42.264;23.826;2023-02-11T04:50:16;95320.41;;;-6.27;64.28
61870;BME280;47810;42.264;23.826;2023-02-11T04:52:42;95327.81;;;-6.41;65.39
61870;BME280;47810;42.264;23.826;2023-02-11T04:55:08;95331.00;;;-6.51;64.88
61870;BME280;47810;42.264;23.826;2023-02-11T04:57:34;95324.47;;;-6.37;63.99
61870;BME280;47810;42.264;23.826;2023-02-11T05:00:00;95329.81;;;-6.27;62.93
61870;BME280;47810;42.264;23.826;2023-02-11T05:02:25;95322.25;;;-6.21;62.23
61870;BME280;47810;42.264;23.826;2023-02-11T05:04:51;95324.72;;;-6.26;62.16
61870;BME280;47810;42.264;23.826;2023-02-11T05:07:16;95329.31;;;-6.49;62.33
61870;BME280;47810;42.264;23.826;2023-02-11T05:09:42;95321.22;;;-6.66;62.46
61870;BME280;47810;42.264;23.826;2023-02-11T05:12:07;95322.63;;;-6.78;62.43
61870;BME280;47810;42.264;23.826;2023-02-11T05:14:34;95318.34;;;-6.80;62.83
61870;BME280;47810;42.264;23.826;2023-02-11T05:16:59;95316.56;;;-6.81;63.05
61870;BME280;47810;42.264;23.826;2023-02-11T05:19:25;95318.03;;;-6.92;63.54
61870;BME280;47810;42.264;23.826;2023-02-11T05:21:50;95318.25;;;-6.83;63.69
61870;BME280;47810;42.264;23.826;2023-02-11T05:24:18;95318.34;;;-6.80;63.38
61870;BME280;47810;42.264;23.826;2023-02-11T05:26:43;95321.84;;;-6.74;63.32
61870;BME280;47810;42.264;23.826;2023-02-11T05:29:09;95319.91;;;-6.85;62.69
61870;BME280;47810;42.264;23.826;2023-02-11T05:31:35;95331.41;;;-7.04;62.71
61870;BME280;47810;42.264;23.826;2023-02-11T05:34:01;95326.56;;;-6.93;63.00
61870;BME280;47810;42.264;23.826;2023-02-11T05:36:28;95332.78;;;-7.16;63.66
61870;BME280;47810;42.264;23.826;2023-02-11T05:38:54;95338.94;;;-7.11;64.42
61870;BME280;47810;42.264;23.826;2023-02-11T05:41:19;95332.19;;;-7.08;64.71
61870;BME280;47810;42.264;23.826;2023-02-11T05:43:46;95334.19;;;-6.96;64.17
61870;BME280;47810;42.264;23.826;2023-02-11T05:46:12;95335.91;;;-6.96;63.29
61870;BME280;47810;42.264;23.826;2023-02-11T05:48:38;95336.44;;;-7.08;63.80
61870;BME280;47810;42.264;23.826;2023-02-11T05:51:12;95336.75;;;-6.96;65.18
61870;BME280;47810;42.264;23.826;2023-02-11T05:53:37;95341.97;;;-6.93;65.33
61870;BME280;47810;42.264;23.826;2023-02-11T05:56:03;95326.06;;;-6.78;63.99
61870;BME280;47810;42.264;23.826;2023-02-11T05:58:28;95319.91;;;-6.85;63.60
61870;BME280;47810;42.264;23.826;2023-02-11T06:00:54;95320.28;;;-6.69;63.43
61870;BME280;47810;42.264;23.826;2023-02-11T06:03:20;95320.34;;;-6.66;63.79
61870;BME280;47810;42.264;23.826;2023-02-11T06:05:45;95328.09;;;-6.65;64.50
61870;BME280;47810;42.264;23.826;2023-02-11T06:08:11;95328.69;;;-6.76;64.73
61870;BME280;47810;42.264;23.826;2023-02-11T06:10:37;95331.41;;;-6.69;64.94
61870;BME280;47810;42.264;23.826;2023-02-11T06:13:02;95317.09;;;-6.59;63.48
61870;BME280;47810;42.264;23.826;2023-02-11T06:15:28;95317.16;;;-6.58;63.97
61870;BME280;47810;42.264;23.826;2023-02-11T06:17:53;95322.38;;;-6.53;64.77
61870;BME280;47810;42.264;23.826;2023-02-11T06:20:19;95328.53;;;-6.46;64.85
61870;BME280;47810;42.264;23.826;2023-02-11T06:22:46;95339.09;;;-6.34;64.57
61870;BME280;47810;42.264;23.826;2023-02-11T06:25:11;95339.88;;;-6.37;64.28
61870;BME280;47810;42.264;23.826;2023-02-11T06:27:37;95348.50;;;-6.35;64.47
61870;BME280;47810;42.264;23.826;2023-02-11T06:30:03;95353.94;;;-6.22;64.50
61870;BME280;47810;42.264;23.826;2023-02-11T06:32:29;95354.31;;;-6.04;64.15
61870;BME280;47810;42.264;23.826;2023-02-11T06:34:55;95340.50;;;-6.09;64.56
61870;BME280;47810;42.264;23.826;2023-02-11T06:37:20;95333.59;;;-6.10;64.98
61870;BME280;47810;42.264;23.826;2023-02-11T06:39:46;95332.47;;;-6.23;63.83
61870;BME280;47810;42.264;23.826;2023-02-11T06:42:11;95334.66;;;-6.40;64.53
61870;BME280;47810;42.264;23.826;2023-02-11T06:44:37;95326.66;;;-6.52;64.99
61870;BME280;47810;42.264;23.826;2023-02-11T06:47:02;95330.31;;;-6.44;65.07
61870;BME280;47810;42.264;23.826;2023-02-11T06:49:28;95330.16;;;-6.50;64.55
61870;BME280;47810;42.264;23.826;2023-02-11T06:51:54;95322.66;;;-6.41;63.35
61870;BME280;47810;42.264;23.826;2023-02-11T06:54:19;95319.47;;;-6.30;63.77
61870;BME280;47810;42.264;23.826;2023-02-11T06:56:45;95319.38;;;-6.34;64.72
61870;BME280;47810;42.264;23.826;2023-02-11T06:59:17;95322.94;;;-6.28;64.91
61870;BME280;47810;42.264;23.826;2023-02-11T07:01:44;95315.69;;;-6.07;64.78
61870;BME280;47810;42.264;23.826;2023-02-11T07:04:10;95311.59;;;-5.99;64.85
61870;BME280;47810;42.264;23.826;2023-02-11T07:06:36;95326.16;;;-5.99;65.00
61870;BME280;47810;42.264;23.826;2023-02-11T07:09:02;95323.75;;;-5.90;64.36
61870;BME280;47810;42.264;23.826;2023-02-11T07:11:28;95328.00;;;-5.94;64.53
61870;BME280;47810;42.264;23.826;2023-02-11T07:13:55;95322.44;;;-5.68;64.96
61870;BME280;47810;42.264;23.826;2023-02-11T07:16:21;95325.69;;;-5.78;64.63
61870;BME280;47810;42.264;23.826;2023-02-11T07:18:47;95327.66;;;-5.65;64.22
61870;BME280;47810;42.264;23.826;2023-02-11T07:21:14;95330.34;;;-5.59;64.42
61870;BME280;47810;42.264;23.826;2023-02-11T07:23:40;95324.22;;;-5.67;65.04
61870;BME280;47810;42.264;23.826;2023-02-11T07:26:07;95323.50;;;-5.60;64.86
61870;BME280;47810;42.264;23.826;2023-02-11T07:28:33;95322.50;;;-5.65;64.22
61870;BME280;47810;42.264;23.826;2023-02-11T07:30:59;95321.53;;;-5.72;63.88
61870;BME280;47810;42.264;23.826;2023-02-11T07:33:24;95313.81;;;-5.72;63.79
61870;BME280;47810;42.264;23.826;2023-02-11T07:35:50;95322.97;;;-5.86;63.89
61870;BME280;47810;42.264;23.826;2023-02-11T07:38:15;95316.69;;;-5.58;64.25
61870;BME280;47810;42.264;23.826;2023-02-11T07:40:41;95315.72;;;-5.63;63.74
61870;BME280;47810;42.264;23.826;2023-02-11T07:43:06;95313.25;;;-5.58;64.12
61870;BME280;47810;42.264;23.826;2023-02-11T07:45:32;95306.34;;;-5.59;63.35
61870;BME280;47810;42.264;23.826;2023-02-11T07:47:57;95314.31;;;-5.46;63.00
61870;BME280;47810;42.264;23.826;2023-02-11T07:50:23;95319.00;;;-5.26;63.41
61870;BME280;47810;42.264;23.826;2023-02-11T07:52:48;95315.59;;;-5.24;62.84
61870;BME280;47810;42.264;23.826;2023-02-11T07:55:15;95319.09;;;-5.20;61.96
61870;BME280;47810;42.264;23.826;2023-02-11T07:57:40;95315.53;;;-5.28;61.90
61870;BME280;47810;42.264;23.826;2023-02-11T08:00:06;95321.03;;;-5.08;63.02
61870;BME280;47810;42.264;23.826;2023-02-11T08:02:32;95310.91;;;-4.98;62.49
61870;BME280;47810;42.264;23.826;2023-02-11T08:04:57;95315.28;;;-4.94;62.00
61870;BME280;47810;42.264;23.826;2023-02-11T08:07:23;95311.97;;;-4.86;62.07
61870;BME280;47810;42.264;23.826;2023-02-11T08:09:48;95308.63;;;-4.81;62.18
61870;BME280;47810;42.264;23.826;2023-02-11T08:12:14;95304.34;;;-4.79;61.71
61870;BME280;47810;42.264;23.826;2023-02-11T08:14:39;95305.53;;;-4.60;61.90
61870;BME280;47810;42.264;23.826;2023-02-11T08:17:05;95312.34;;;-4.65;60.71
61870;BME280;47810;42.264;23.826;2023-02-11T08:19:31;95299.66;;;-4.50;59.91
61870;BME280;47810;42.264;23.826;2023-02-11T08:21:57;95302.53;;;-4.31;60.29
61870;BME280;47810;42.264;23.826;2023-02-11T08:24:24;95298.34;;;-4.23;60.97
61870;BME280;47810;42.264;23.826;2023-02-11T08:26:50;95300.09;;;-4.21;60.39
61870;BME280;47810;42.264;23.826;2023-02-11T08:29:16;95290.59;;;-4.26;59.35
61870;BME280;47810;42.264;23.826;2023-02-11T08:31:42;95285.00;;;-3.94;57.88
61870;BME280;47810;42.264;23.826;2023-02-11T08:34:08;95285.13;;;-3.82;56.94
61870;BME280;47810;42.264;23.826;2023-02-11T08:36:36;95287.41;;;-3.37;55.25
61870;BME280;47810;42.264;23.826;2023-02-11T08:39:03;95288.09;;;-3.50;56.31
61870;BME280;47810;42.264;23.826;2023-02-11T08:41:32;95288.31;;;-3.32;57.76
61870;BME280;47810;42.264;23.826;2023-02-11T08:43:57;95289.72;;;-2.74;56.08
61870;BME280;47810;42.264;23.826;2023-02-11T08:46:23;95279.53;;;-2.59;57.67
61870;BME280;47810;42.264;23.826;2023-02-11T08:48:49;95284.06;;;-2.26;54.65
61870;BME280;47810;42.264;23.826;2023-02-11T08:51:16;95289.31;;;-2.17;55.44
61870;BME280;47810;42.264;23.826;2023-02-11T08:53:41;95289.50;;;-1.83;57.23
61870;BME280;47810;42.264;23.826;2023-02-11T08:56:08;95278.44;;;-1.45;55.06
61870;BME280;47810;42.264;23.826;2023-02-11T08:58:34;95281.97;;;-1.20;54.25
61870;BME280;47810;42.264;23.826;2023-02-11T09:00:59;95281.16;;;-0.91;53.80
61870;BME280;47810;42.264;23.826;2023-02-11T09:03:25;95276.03;;;-0.29;50.77
61870;BME280;47810;42.264;23.826;2023-02-11T09:05:50;95269.06;;;-0.14;52.44
61870;BME280;47810;42.264;23.826;2023-02-11T09:08:17;95281.09;;;0.22;51.34
61870;BME280;47810;42.264;23.826;2023-02-11T09:10:43;95276.66;;;0.59;50.72
61870;BME280;47810;42.264;23.826;2023-02-11T09:13:09;95272.25;;;0.70;49.79
61870;BME280;47810;42.264;23.826;2023-02-11T09:15:34;95266.19;;;0.70;47.57
61870;BME280;47810;42.264;23.826;2023-02-11T09:18:02;95258.41;;;0.75;45.67
61870;BME280;47810;42.264;23.826;2023-02-11T09:20:27;95258.16;;;1.11;47.72
61870;BME280;47810;42.264;23.826;2023-02-11T09:22:53;95264.34;;;1.00;45.10
61870;BME280;47810;42.264;23.826;2023-02-11T09:25:19;95261.72;;;1.01;47.33
61870;BME280;47810;42.264;23.826;2023-02-11T09:27:45;95257.53;;;1.91;44.72
61870;BME280;47810;42.264;23.826;2023-02-11T09:30:10;95258.06;;;2.25;48.16
61870;BME280;47810;42.264;23.826;2023-02-11T09:32:36;95256.09;;;2.47;46.18
61870;BME280;47810;42.264;23.826;2023-02-11T09:35:02;95259.63;;;2.42;43.88
61870;BME280;47810;42.264;23.826;2023-02-11T09:37:27;95248.03;;;2.66;41.59
61870;BME280;47810;42.264;23.826;2023-02-11T09:39:53;95246.66;;;2.34;43.50
61870;BME280;47810;42.264;23.826;2023-02-11T09:44:59;95234.94;;;2.69;43.93
61870;BME280;47810;42.264;23.826;2023-02-11T09:47:30;95228.25;;;2.51;45.01
61870;BME280;47810;42.264;23.826;2023-02-11T09:50:10;95217.38;;;2.85;43.13
61870;BME280;47810;42.264;23.826;2023-02-11T09:52:46;95210.13;;;3.61;45.79
61870;BME280;47810;42.264;23.826;2023-02-11T09:55:17;95205.03;;;4.01;42.94
61870;BME280;47810;42.264;23.826;2023-02-11T09:57:45;95190.13;;;4.53;39.66
61870;BME280;47810;42.264;23.826;2023-02-11T10:00:22;95184.59;;;4.23;38.83
61870;BME280;47810;42.264;23.826;2023-02-11T10:05:21;95171.34;;;5.13;40.02
61870;BME280;47810;42.264;23.826;2023-02-11T10:10:49;95168.59;;;5.19;38.58
61870;BME280;47810;42.264;23.826;2023-02-11T10:13:23;95165.19;;;5.51;39.37
61870;BME280;47810;42.264;23.826;2023-02-11T10:15:57;95161.91;;;5.77;38.26
61870;BME280;47810;42.264;23.826;2023-02-11T10:21:14;95154.72;;;5.86;38.68
61870;BME280;47810;42.264;23.826;2023-02-11T10:23:44;95150.50;;;6.14;36.10
61870;BME280;47810;42.264;23.826;2023-02-11T10:26:15;95146.25;;;5.74;37.58
61870;BME280;47810;42.264;23.826;2023-02-11T10:28:41;95141.44;;;5.93;37.81
61870;BME280;47810;42.264;23.826;2023-02-11T10:31:10;95130.31;;;5.83;33.03
61870;BME280;47810;42.264;23.826;2023-02-11T10:33:44;95132.00;;;5.16;36.94
61870;BME280;47810;42.264;23.826;2023-02-11T10:36:11;95118.53;;;6.00;38.63
61870;BME280;47810;42.264;23.826;2023-02-11T10:38:37;95110.56;;;6.36;36.85
61870;BME280;47810;42.264;23.826;2023-02-11T10:41:04;95107.03;;;6.66;38.81
61870;BME280;47810;42.264;23.826;2023-02-11T10:43:31;95095.41;;;6.75;37.05
61870;BME280;47810;42.264;23.826;2023-02-11T10:45:57;95089.09;;;6.81;35.92
61870;BME280;47810;42.264;23.826;2023-02-11T10:53:38;95070.31;;;7.73;34.29
61870;BME280;47810;42.264;23.826;2023-02-11T10:56:04;95077.50;;;7.67;35.16
61870;BME280;47810;42.264;23.826;2023-02-11T10:58:31;95067.75;;;7.96;33.44
61870;BME280;47810;42.264;23.826;2023-02-11T11:01:00;95067.56;;;7.76;34.93
61870;BME280;47810;42.264;23.826;2023-02-11T11:03:31;95058.81;;;7.50;35.73
61870;BME280;47810;42.264;23.826;2023-02-11T11:06:01;95049.91;;;7.29;31.14
61870;BME280;47810;42.264;23.826;2023-02-11T11:08:47;95056.38;;;6.35;33.31
61870;BME280;47810;42.264;23.826;2023-02-11T11:11:17;95052.66;;;6.12;34.25
61870;BME280;47810;42.264;23.826;2023-02-11T11:14:17;95046.16;;;7.36;35.20
61870;BME280;47810;42.264;23.826;2023-02-11T11:16:35;95034.66;;;7.89;35.92
61870;BME280;47810;42.264;23.826;2023-02-11T11:21:34;95025.19;;;7.85;32.25
61870;BME280;47810;42.264;23.826;2023-02-11T11:24:01;95020.88;;;8.54;32.92
61870;BME280;47810;42.264;23.826;2023-02-11T11:26:38;95013.47;;;8.17;32.31
61870;BME280;47810;42.264;23.826;2023-02-11T11:32:04;95011.75;;;8.41;31.99
61870;BME280;47810;42.264;23.826;2023-02-11T11:37:09;94999.34;;;8.43;32.46
61870;BME280;47810;42.264;23.826;2023-02-11T11:39:34;94995.69;;;8.91;29.03
61870;BME280;47810;42.264;23.826;2023-02-11T11:42:01;94994.72;;;8.50;31.89
61870;BME280;47810;42.264;23.826;2023-02-11T11:44:36;94993.16;;;8.68;31.15
61870;BME280;47810;42.264;23.826;2023-02-11T11:47:15;94991.13;;;8.29;27.93
61870;BME280;47810;42.264;23.826;2023-02-11T11:52:22;94988.59;;;8.49;29.70
61870;BME280;47810;42.264;23.826;2023-02-11T11:54:54;94985.38;;;8.65;31.35
61870;BME280;47810;42.264;23.826;2023-02-11T11:57:24;94973.50;;;9.39;29.00
61870;BME280;47810;42.264;23.826;2023-02-11T11:59:51;94974.53;;;9.15;28.64
61870;BME280;47810;42.264;23.826;2023-02-11T12:07:36;94961.63;;;9.49;27.60
61870;BME280;47810;42.264;23.826;2023-02-11T12:20:11;94950.91;;;9.33;33.51
61870;BME280;47810;42.264;23.826;2023-02-11T12:26:16;94946.59;;;9.72;28.81
61870;BME280;47810;42.264;23.826;2023-02-11T13:07:49;94903.34;;;10.14;27.17
61870;BME280;47810;42.264;23.826;2023-02-11T13:12:59;94902.13;;;9.83;24.51
61870;BME280;47810;42.264;23.826;2023-02-11T13:16:06;94904.97;;;9.78;30.22
61870;BME280;47810;42.264;23.826;2023-02-11T13:21:35;94901.97;;;9.67;28.45
61870;BME280;47810;42.264;23.826;2023-02-11T13:32:23;94897.25;;;9.55;32.61
61870;BME280;47810;42.264;23.826;2023-02-11T13:34:53;94891.88;;;9.77;32.26
61870;BME280;47810;42.264;23.826;2023-02-11T13:37:25;94889.44;;;9.91;29.45
61870;BME280;47810;42.264;23.826;2023-02-11T13:40:19;94886.03;;;9.89;31.20
61870;BME280;47810;42.264;23.826;2023-02-11T13:42:57;94879.56;;;10.34;30.29
61870;BME280;47810;42.264;23.826;2023-02-11T13:47:58;94885.22;;;9.68;28.68
61870;BME280;47810;42.264;23.826;2023-02-11T13:50:38;94886.25;;;9.45;31.94
61870;BME280;47810;42.264;23.826;2023-02-11T13:53:12;94890.22;;;9.35;31.47
61870;BME280;47810;42.264;23.826;2023-02-11T13:55:44;94878.25;;;8.87;30.46
61870;BME280;47810;42.264;23.826;2023-02-11T13:58:16;94872.97;;;8.87;33.71
61870;BME280;47810;42.264;23.826;2023-02-11T14:00:47;94881.13;;;9.01;33.00
61870;BME280;47810;42.264;23.826;2023-02-11T14:03:21;94880.88;;;9.07;32.04
61870;BME280;47810;42.264;23.826;2023-02-11T14:14:59;94884.88;;;8.75;32.53
61870;BME280;47810;42.264;23.826;2023-02-11T14:17:32;94878.19;;;8.46;32.08
61870;BME280;47810;42.264;23.826;2023-02-11T14:20:30;94866.28;;;8.36;31.94
61870;BME280;47810;42.264;23.826;2023-02-11T14:22:52;94878.03;;;7.83;32.10
61870;BME280;47810;42.264;23.826;2023-02-11T14:25:23;94878.41;;;7.96;33.23
61870;BME280;47810;42.264;23.826;2023-02-11T14:31:01;94882.50;;;7.58;33.80
61870;BME280;47810;42.264;23.826;2023-02-11T14:36:21;94876.00;;;7.19;34.03
61870;BME280;47810;42.264;23.826;2023-02-11T14:39:07;94868.69;;;7.03;31.27
61870;BME280;47810;42.264;23.826;2023-02-11T14:41:37;94870.88;;;6.91;30.73
61870;BME280;47810;42.264;23.826;2023-02-11T14:44:05;94873.66;;;6.60;34.34
61870;BME280;47810;42.264;23.826;2023-02-11T14:46:34;94865.28;;;6.22;35.09
61870;BME280;47810;42.264;23.826;2023-02-11T14:49:01;94876.78;;;5.60;35.95
61870;BME280;47810;42.264;23.826;2023-02-11T14:51:34;94871.00;;;4.88;37.94
61870;BME280;47810;42.264;23.826;2023-02-11T14:54:11;94873.59;;;4.22;39.36
61870;BME280;47810;42.264;23.826;2023-02-11T14:56:39;94876.22;;;4.20;39.30
61870;BME280;47810;42.264;23.826;2023-02-11T14:59:18;94868.09;;;3.96;40.18
61870;BME280;47810;42.264;23.826;2023-02-11T15:01:48;94868.88;;;3.63;41.93
61870;BME280;47810;42.264;23.826;2023-02-11T15:04:24;94870.81;;;3.13;42.84
61870;BME280;47810;42.264;23.826;2023-02-11T15:06:50;94870.41;;;2.89;43.78
61870;BME280;47810;42.264;23.826;2023-02-11T15:09:20;94875.34;;;2.58;43.94
61870;BME280;47810;42.264;23.826;2023-02-11T15:11:50;94873.84;;;2.91;43.32
61870;BME280;47810;42.264;23.826;2023-02-11T15:14:27;94876.56;;;2.37;45.27
61870;BME280;47810;42.264;23.826;2023-02-11T15:16:55;94878.38;;;2.35;45.94
61870;BME280;47810;42.264;23.826;2023-02-11T15:19:37;94890.28;;;1.96;46.49
61870;BME280;47810;42.264;23.826;2023-02-11T15:22:06;94888.06;;;1.70;47.27
61870;BME280;47810;42.264;23.826;2023-02-11T15:24:33;94887.84;;;1.85;47.13